Time;durP1;ratioP1;P1;durP2;ratioP2;P2;SDS_P1;SDS_P2;PMS_P1;PMS_P2;Temp;Humidity;BMP_temperature;BMP_pressure;BME280_temperature;BME280_humidity;BME280_pressure;Samples;Min_cycle;Max_cycle;Signal;HPM_P1;HPM_P2
2023/07/29 00:01:36;;;;;;;9.32;7.72;;;;;;;;;;6186430;23;20024;-67
2023/07/29 00:04:02;;;;;;;9.85;7.93;;;;;;;;;;6213772;23;20321;-67
2023/07/29 00:06:28;;;;;;;9.88;7.75;;;;;;;;;;6213602;23;20008;-67
2023/07/29 00:08:55;;;;;;;11.13;7.80;;;;;;;;;;6213597;23;20012;-67
2023/07/29 00:11:21;;;;;;;11.60;7.90;;;;;;;;;;6187415;23;20019;-67
2023/07/29 00:13:47;;;;;;;12.48;7.55;;;;;;;;;;6213747;23;20076;-67
2023/07/29 00:16:15;;;;;;;10.05;7.82;;;;;;;;;;6213030;23;20013;-67
2023/07/29 00:18:41;;;;;;;11.90;8.73;;;;;;;;;;6213544;23;20016;-67
2023/07/29 00:21:07;;;;;;;10.02;7.57;;;;;;;;;;6213804;23;20052;-67
2023/07/29 00:23:33;;;;;;;10.43;7.45;;;;;;;;;;6213100;23;20078;-67
2023/07/29 00:25:59;;;;;;;9.85;8.57;;;;;;;;;;6213263;23;20716;-67
2023/07/29 00:28:25;;;;;;;12.45;8.43;;;;;;;;;;6213381;23;20013;-67
2023/07/29 00:30:51;;;;;;;11.55;8.45;;;;;;;;;;6212750;23;20048;-67
2023/07/29 00:33:18;;;;;;;10.60;7.53;;;;;;;;;;6213684;23;20036;-67
2023/07/29 00:35:44;;;;;;;9.95;7.68;;;;;;;;;;6213073;23;20013;-67
2023/07/29 00:38:10;;;;;;;9.45;7.28;;;;;;;;;;6212951;23;20814;-67
2023/07/29 00:40:37;;;;;;;9.05;6.78;;;;;;;;;;6213352;23;20075;-67
2023/07/29 00:43:03;;;;;;;9.82;7.07;;;;;;;;;;6213239;23;20017;-67
2023/07/29 00:45:29;;;;;;;10.77;7.20;;;;;;;;;;6212944;23;20017;-67
2023/07/29 00:47:55;;;;;;;8.90;6.78;;;;;;;;;;6213389;23;20043;-67
2023/07/29 00:50:22;;;;;;;11.15;7.07;;;;;;;;;;6213396;23;20430;-67
2023/07/29 00:52:49;;;;;;;9.82;6.60;;;;;;;;;;6212492;23;20050;-67
2023/07/29 00:55:15;;;;;;;8.63;6.88;;;;;;;;;;6213330;23;20615;-67
2023/07/29 00:57:42;;;;;;;9.85;6.78;;;;;;;;;;6213214;23;20051;-67
2023/07/29 01:00:08;;;;;;;9.88;6.82;;;;;;;;;;6212895;23;20043;-67
2023/07/29 01:02:35;;;;;;;8.88;6.60;;;;;;;;;;6213168;23;20020;-67
2023/07/29 01:05:01;;;;;;;10.65;7.03;;;;;;;;;;6213006;23;20363;-67
2023/07/29 01:07:34;;;;;;;10.23;6.55;;;;;;;;;;6212795;23;20027;-67
2023/07/29 01:10:05;;;;;;;9.48;7.47;;;;;;;;;;6213289;23;20367;-67
2023/07/29 01:12:37;;;;;;;9.35;7.65;;;;;;;;;;6213002;23;20432;-67
2023/07/29 01:15:09;;;;;;;9.68;7.97;;;;;;;;;;6212854;23;20016;-67
2023/07/29 01:17:48;;;;;;;10.98;7.20;;;;;;;;;;6213418;23;20095;-67
2023/07/29 01:20:20;;;;;;;9.52;7.07;;;;;;;;;;6212691;23;20321;-67
2023/07/29 01:22:46;;;;;;;10.05;6.43;;;;;;;;;;6212738;23;20440;-67
2023/07/29 01:25:13;;;;;;;11.70;7.10;;;;;;;;;;6212686;23;20016;-67
2023/07/29 01:27:39;;;;;;;10.95;7.03;;;;;;;;;;6213122;23;20431;-67
2023/07/29 01:30:06;;;;;;;11.05;7.22;;;;;;;;;;6212207;23;20019;-67
2023/07/29 01:32:49;;;;;;;12.88;7.85;;;;;;;;;;6212958;23;20444;-67
2023/07/29 01:35:36;;;;;;;12.27;7.00;;;;;;;;;;6212469;23;20019;-67
2023/07/29 01:38:38;;;;;;;11.88;7.45;;;;;;;;;;6212903;23;20492;-67
2023/07/29 01:41:06;;;;;;;8.40;6.85;;;;;;;;;;6090607;23;20065;-67
2023/07/29 01:43:33;;;;;;;9.10;6.15;;;;;;;;;;6189448;23;20013;-67
2023/07/29 01:45:59;;;;;;;8.23;6.43;;;;;;;;;;6212940;23;20015;-67
2023/07/29 01:48:25;;;;;;;9.82;6.45;;;;;;;;;;6211446;23;20428;-67
2023/07/29 01:50:51;;;;;;;6.63;5.45;;;;;;;;;;6212496;23;20019;-67
2023/07/29 01:53:18;;;;;;;11.48;6.20;;;;;;;;;;6212472;23;20047;-67
2023/07/29 01:55:44;;;;;;;7.82;6.30;;;;;;;;;;6212497;23;20099;-67
2023/07/29 01:58:11;;;;;;;8.70;6.60;;;;;;;;;;6212285;23;20555;-67
2023/07/29 02:00:37;;;;;;;10.02;5.97;;;;;;;;;;6212682;23;20025;-67
2023/07/29 02:03:03;;;;;;;7.90;6.07;;;;;;;;;;6212602;23;20023;-67
2023/07/29 02:05:29;;;;;;;9.02;5.60;;;;;;;;;;6212230;23;20467;-67
2023/07/29 02:07:55;;;;;;;6.50;5.32;;;;;;;;;;6212658;23;20008;-67
2023/07/29 02:10:21;;;;;;;6.45;5.15;;;;;;;;;;6212275;23;20056;-67
2023/07/29 02:12:47;;;;;;;6.68;5.15;;;;;;;;;;6212048;23;20008;-67
2023/07/29 02:15:13;;;;;;;7.30;5.63;;;;;;;;;;6212719;23;20024;-67
2023/07/29 02:17:41;;;;;;;7.25;5.53;;;;;;;;;;6212770;23;20312;-67
2023/07/29 02:20:08;;;;;;;7.93;5.35;;;;;;;;;;6212118;23;20079;-67
2023/07/29 02:22:34;;;;;;;5.43;4.90;;;;;;;;;;6212548;23;20479;-67
2023/07/29 02:25:00;;;;;;;6.60;5.07;;;;;;;;;;6212628;23;20016;-67
2023/07/29 02:27:27;;;;;;;8.07;6.00;;;;;;;;;;6212188;23;20016;-67
2023/07/29 02:29:54;;;;;;;6.97;5.10;;;;;;;;;;6212582;23;20517;-67
2023/07/29 02:32:20;;;;;;;6.95;5.07;;;;;;;;;;6212469;23;20012;-67
2023/07/29 02:34:46;;;;;;;7.53;5.20;;;;;;;;;;6212100;23;20127;-67
2023/07/29 02:37:12;;;;;;;8.45;5.63;;;;;;;;;;6212219;23;20017;-67
2023/07/29 02:39:38;;;;;;;8.60;5.70;;;;;;;;;;6212617;23;20020;-67
2023/07/29 02:42:04;;;;;;;7.15;5.55;;;;;;;;;;6212113;23;20066;-67
2023/07/29 02:44:30;;;;;;;9.68;5.10;;;;;;;;;;6211036;23;20051;-67
2023/07/29 02:46:56;;;;;;;8.50;6.00;;;;;;;;;;6212552;23;20016;-67
2023/07/29 02:49:23;;;;;;;7.22;5.78;;;;;;;;;;6212512;23;20474;-67
2023/07/29 02:51:49;;;;;;;9.50;5.60;;;;;;;;;;6212080;23;20020;-67
2023/07/29 02:54:15;;;;;;;7.22;5.70;;;;;;;;;;6212320;23;20051;-67
2023/07/29 02:56:41;;;;;;;6.22;5.38;;;;;;;;;;6212541;23;20016;-67
2023/07/29 02:59:07;;;;;;;9.15;5.13;;;;;;;;;;6212020;23;20051;-67
2023/07/29 03:01:34;;;;;;;7.53;5.40;;;;;;;;;;6212374;23;20059;-67
2023/07/29 03:04:00;;;;;;;8.13;5.70;;;;;;;;;;6212415;23;20013;-67
2023/07/29 03:06:27;;;;;;;5.28;4.32;;;;;;;;;;6211947;23;20067;-67
2023/07/29 03:08:53;;;;;;;8.95;5.57;;;;;;;;;;6212503;23;20020;-67
2023/07/29 03:11:19;;;;;;;8.52;5.70;;;;;;;;;;6212379;23;20013;-67
2023/07/29 03:13:45;;;;;;;5.28;4.32;;;;;;;;;;6211314;23;20017;-67
2023/07/29 03:16:12;;;;;;;5.78;4.47;;;;;;;;;;6211989;23;20133;-67
2023/07/29 03:18:38;;;;;;;6.45;4.18;;;;;;;;;;6212525;23;20016;-67
2023/07/29 03:21:05;;;;;;;6.53;4.57;;;;;;;;;;6211936;23;20048;-67
2023/07/29 03:23:31;;;;;;;6.63;4.60;;;;;;;;;;6214111;23;20020;-67
2023/07/29 03:25:58;;;;;;;6.93;4.03;;;;;;;;;;6214111;23;20048;-67
2023/07/29 03:28:28;;;;;;;7.30;4.38;;;;;;;;;;6213389;23;20042;-67
2023/07/29 03:30:54;;;;;;;6.20;3.80;;;;;;;;;;6214045;23;20329;-67
2023/07/29 03:33:20;;;;;;;6.43;4.25;;;;;;;;;;6214062;23;20192;-67
2023/07/29 03:35:47;;;;;;;5.20;4.10;;;;;;;;;;6212838;23;20016;-67
2023/07/29 03:38:13;;;;;;;6.57;4.47;;;;;;;;;;6214179;23;20440;-67
2023/07/29 03:40:40;;;;;;;5.90;4.47;;;;;;;;;;6213959;23;20016;-67
2023/07/29 03:43:06;;;;;;;5.97;4.13;;;;;;;;;;6186803;23;20044;-67
2023/07/29 03:45:33;;;;;;;6.60;4.40;;;;;;;;;;6213658;23;20301;-67
2023/07/29 03:47:59;;;;;;;5.07;3.90;;;;;;;;;;6214092;23;20023;-67
2023/07/29 03:50:25;;;;;;;5.35;3.85;;;;;;;;;;6213544;23;20542;-67
2023/07/29 03:52:51;;;;;;;4.07;3.35;;;;;;;;;;6213600;23;20012;-67
2023/07/29 03:55:17;;;;;;;6.63;3.90;;;;;;;;;;6213685;23;20009;-67
2023/07/29 03:57:43;;;;;;;4.25;3.60;;;;;;;;;;6213509;23;20016;-67
2023/07/29 04:00:10;;;;;;;5.57;3.67;;;;;;;;;;6213905;23;20375;-67
2023/07/29 04:02:37;;;;;;;5.13;3.50;;;;;;;;;;6213599;23;20058;-67
2023/07/29 04:05:04;;;;;;;5.55;3.45;;;;;;;;;;6213353;23;20088;-67
2023/07/29 04:07:30;;;;;;;4.60;3.40;;;;;;;;;;6213735;23;20376;-67
2023/07/29 04:09:56;;;;;;;5.35;3.20;;;;;;;;;;6213714;23;20012;-67
2023/07/29 04:12:22;;;;;;;5.22;3.13;;;;;;;;;;6186422;23;20321;-67
2023/07/29 04:14:49;;;;;;;6.43;3.63;;;;;;;;;;6213744;23;20027;-67
2023/07/29 04:17:15;;;;;;;8.68;3.75;;;;;;;;;;6187013;23;20020;-67
2023/07/29 04:19:41;;;;;;;5.78;3.50;;;;;;;;;;6213471;23;20379;-67
2023/07/29 04:22:07;;;;;;;8.15;3.45;;;;;;;;;;6213873;23;20451;-67
2023/07/29 04:24:33;;;;;;;5.13;3.28;;;;;;;;;;6213826;23;20424;-67
2023/07/29 04:26:59;;;;;;;7.97;3.58;;;;;;;;;;6213224;23;20008;-67
2023/07/29 04:29:25;;;;;;;6.35;3.22;;;;;;;;;;6213694;23;20020;-67
2023/07/29 04:31:51;;;;;;;4.30;3.42;;;;;;;;;;6213630;23;20016;-67
2023/07/29 04:34:18;;;;;;;5.22;3.80;;;;;;;;;;6212943;23;20091;-67
2023/07/29 04:36:45;;;;;;;6.20;3.40;;;;;;;;;;6213078;23;20095;-67
2023/07/29 04:39:11;;;;;;;5.97;3.38;;;;;;;;;;6213694;23;20043;-67
2023/07/29 04:41:37;;;;;;;5.90;3.38;;;;;;;;;;6213063;23;20017;-67
2023/07/29 04:44:03;;;;;;;4.75;3.38;;;;;;;;;;6213149;23;20016;-67
2023/07/29 04:46:29;;;;;;;3.85;2.88;;;;;;;;;;6213315;23;20087;-67
2023/07/29 04:48:55;;;;;;;4.28;3.05;;;;;;;;;;6213034;23;20051;-67
2023/07/29 04:51:21;;;;;;;5.50;3.45;;;;;;;;;;6213051;23;20027;-67
2023/07/29 04:53:47;;;;;;;7.50;2.85;;;;;;;;;;6213337;23;20020;-67
2023/07/29 04:56:13;;;;;;;4.78;3.00;;;;;;;;;;6213114;23;20062;-67
2023/07/29 04:58:39;;;;;;;6.60;3.15;;;;;;;;;;6213363;23;20382;-67
2023/07/29 05:01:06;;;;;;;6.50;2.90;;;;;;;;;;6212838;23;20048;-67
2023/07/29 05:03:32;;;;;;;4.63;3.03;;;;;;;;;;6212812;23;20040;-67
2023/07/29 05:05:59;;;;;;;5.07;2.78;;;;;;;;;;6213107;23;20363;-67
2023/07/29 05:08:26;;;;;;;3.20;2.55;;;;;;;;;;6212961;23;20017;-67
2023/07/29 05:10:52;;;;;;;4.25;3.40;;;;;;;;;;6212826;23;20048;-67
2023/07/29 05:13:19;;;;;;;5.35;3.42;;;;;;;;;;6213114;23;20373;-67
2023/07/29 05:15:45;;;;;;;4.55;3.03;;;;;;;;;;6213166;23;20039;-67
2023/07/29 05:18:11;;;;;;;4.13;2.83;;;;;;;;;;6212300;23;20072;-67
2023/07/29 05:20:37;;;;;;;6.20;2.75;;;;;;;;;;6213075;23;20098;-67
2023/07/29 05:23:03;;;;;;;3.88;2.95;;;;;;;;;;6212880;23;20009;-67
2023/07/29 05:25:30;;;;;;;4.90;2.80;;;;;;;;;;6212589;23;20012;-67
2023/07/29 05:27:57;;;;;;;5.97;2.60;;;;;;;;;;6213123;23;20108;-67
2023/07/29 05:30:23;;;;;;;5.22;3.15;;;;;;;;;;6212452;23;20023;-67
2023/07/29 05:32:49;;;;;;;3.85;2.40;;;;;;;;;;6185580;23;20043;-67
2023/07/29 05:35:15;;;;;;;5.78;2.60;;;;;;;;;;6213082;23;20067;-67
2023/07/29 05:37:41;;;;;;;5.20;3.15;;;;;;;;;;6212513;23;20352;-67
2023/07/29 05:40:08;;;;;;;5.43;3.13;;;;;;;;;;6212519;23;20035;-67
2023/07/29 05:42:34;;;;;;;5.90;3.17;;;;;;;;;;6212805;23;20328;-67
2023/07/29 05:45:00;;;;;;;3.75;2.78;;;;;;;;;;6212534;23;20009;-67
2023/07/29 05:47:26;;;;;;;7.03;3.03;;;;;;;;;;6212431;23;20071;-67
2023/07/29 05:49:52;;;;;;;8.88;3.28;;;;;;;;;;6212852;23;20347;-67
2023/07/29 05:52:19;;;;;;;6.28;3.38;;;;;;;;;;6212380;23;20351;-67
2023/07/29 05:54:45;;;;;;;8.68;3.13;;;;;;;;;;6211835;23;20017;-67
2023/07/29 05:57:14;;;;;;;6.25;3.00;;;;;;;;;;6212904;23;20486;-67
2023/07/29 05:59:40;;;;;;;6.35;3.45;;;;;;;;;;6212798;23;20017;-67
2023/07/29 06:02:06;;;;;;;8.35;3.97;;;;;;;;;;6211840;23;20663;-67
2023/07/29 06:04:32;;;;;;;6.85;3.47;;;;;;;;;;6212682;23;20017;-67
2023/07/29 06:06:58;;;;;;;7.85;4.20;;;;;;;;;;6212410;23;20044;-67
2023/07/29 06:09:27;;;;;;;8.43;3.75;;;;;;;;;;6212185;23;20013;-67
2023/07/29 06:11:53;;;;;;;7.72;4.18;;;;;;;;;;6212077;23;20020;-67
2023/07/29 06:14:19;;;;;;;8.80;4.00;;;;;;;;;;6212606;23;20012;-67
2023/07/29 06:16:45;;;;;;;7.10;4.10;;;;;;;;;;6212352;23;20047;-67
2023/07/29 06:19:13;;;;;;;9.05;4.00;;;;;;;;;;6212493;23;20016;-67
2023/07/29 06:21:39;;;;;;;8.23;4.50;;;;;;;;;;6212484;23;20054;-67
2023/07/29 06:24:05;;;;;;;11.05;4.45;;;;;;;;;;6212256;23;20077;-67
2023/07/29 06:26:31;;;;;;;9.77;4.60;;;;;;;;;;6212019;23;20013;-67
2023/07/29 06:28:57;;;;;;;8.18;4.10;;;;;;;;;;6212376;23;20016;-67
2023/07/29 06:31:23;;;;;;;8.80;4.30;;;;;;;;;;6212575;23;20316;-67
2023/07/29 06:33:49;;;;;;;8.13;3.88;;;;;;;;;;6212263;23;20016;-67
2023/07/29 06:36:15;;;;;;;7.13;4.43;;;;;;;;;;6211802;23;20021;-67
2023/07/29 06:38:41;;;;;;;8.57;4.05;;;;;;;;;;6210610;23;20097;-67
2023/07/29 06:41:07;;;;;;;8.15;4.25;;;;;;;;;;6210160;23;20083;-67
2023/07/29 06:43:33;;;;;;;10.02;4.43;;;;;;;;;;6210738;23;20013;-67
2023/07/29 06:45:59;;;;;;;10.02;4.95;;;;;;;;;;6210423;23;20017;-67
2023/07/29 06:48:25;;;;;;;8.93;3.92;;;;;;;;;;6210334;23;20017;-67
2023/07/29 06:50:52;;;;;;;9.80;4.68;;;;;;;;;;6210805;23;20031;-67
2023/07/29 06:53:18;;;;;;;12.60;4.60;;;;;;;;;;6210393;23;20019;-67
2023/07/29 06:55:44;;;;;;;12.68;4.78;;;;;;;;;;6210524;23;20443;-67
2023/07/29 06:58:11;;;;;;;9.00;5.53;;;;;;;;;;6212806;23;20083;-67
2023/07/29 07:00:37;;;;;;;9.52;5.20;;;;;;;;;;6212559;23;20063;-67
2023/07/29 07:03:03;;;;;;;9.57;5.43;;;;;;;;;;6211940;23;20352;-67
2023/07/29 07:05:29;;;;;;;9.10;4.88;;;;;;;;;;6212412;23;20055;-67
2023/07/29 07:07:55;;;;;;;8.57;4.85;;;;;;;;;;6212891;23;20031;-67
2023/07/29 07:10:21;;;;;;;8.82;5.22;;;;;;;;;;6211852;23;20020;-67
2023/07/29 07:12:47;;;;;;;11.43;4.85;;;;;;;;;;6212532;23;20055;-67
2023/07/29 07:15:13;;;;;;;10.40;4.93;;;;;;;;;;6212138;23;20028;-67
2023/07/29 07:17:39;;;;;;;9.68;4.22;;;;;;;;;;6211902;23;20219;-67
2023/07/29 07:20:05;;;;;;;11.43;5.13;;;;;;;;;;6185366;23;20343;-67
2023/07/29 07:22:31;;;;;;;10.02;5.38;;;;;;;;;;6212203;23;20262;-67
2023/07/29 07:24:57;;;;;;;9.27;6.15;;;;;;;;;;6212103;23;20080;-67
2023/07/29 07:27:23;;;;;;;8.35;6.35;;;;;;;;;;6211934;23;20012;-67
2023/07/29 07:29:49;;;;;;;7.40;5.20;;;;;;;;;;6212512;23;20432;-67
2023/07/29 07:32:15;;;;;;;8.75;4.85;;;;;;;;;;6211936;23;20024;-67
2023/07/29 07:34:41;;;;;;;9.18;5.60;;;;;;;;;;6212295;23;20016;-67
2023/07/29 07:37:07;;;;;;;13.40;5.57;;;;;;;;;;6211766;23;20052;-67
2023/07/29 07:39:33;;;;;;;10.82;5.70;;;;;;;;;;6211844;23;20020;-67
2023/07/29 07:41:59;;;;;;;10.05;5.13;;;;;;;;;;6211775;23;20457;-67
2023/07/29 07:44:26;;;;;;;11.65;5.43;;;;;;;;;;6212335;23;20327;-67
2023/07/29 07:46:53;;;;;;;9.45;5.15;;;;;;;;;;6211714;23;20013;-67
2023/07/29 07:49:19;;;;;;;8.82;4.53;;;;;;;;;;6212538;23;20067;-67
2023/07/29 07:51:45;;;;;;;9.32;4.75;;;;;;;;;;6210638;23;20016;-67
2023/07/29 07:54:11;;;;;;;7.53;4.50;;;;;;;;;;6211120;23;20038;-67
2023/07/29 07:56:37;;;;;;;8.50;4.18;;;;;;;;;;6211874;23;20024;-67
2023/07/29 07:59:03;;;;;;;18.23;4.03;;;;;;;;;;6212336;23;20454;-67
2023/07/29 08:01:35;;;;;;;8.23;3.58;;;;;;;;;;6211658;23;20059;-67
2023/07/29 08:04:01;;;;;;;7.20;4.15;;;;;;;;;;6211946;23;20044;-67
2023/07/29 08:06:27;;;;;;;10.15;4.07;;;;;;;;;;6211971;23;20012;-67
2023/07/29 08:08:53;;;;;;;6.57;3.35;;;;;;;;;;6210564;23;20012;-67
2023/07/29 08:11:19;;;;;;;6.22;3.10;;;;;;;;;;6211996;23;20020;-67
2023/07/29 08:13:45;;;;;;;5.90;3.38;;;;;;;;;;6211784;23;20440;-67
2023/07/29 08:16:11;;;;;;;12.98;3.92;;;;;;;;;;6209797;23;20012;-67
2023/07/29 08:18:37;;;;;;;6.50;3.78;;;;;;;;;;6211912;23;20023;-67
2023/07/29 08:21:03;;;;;;;6.75;3.88;;;;;;;;;;6211870;23;20020;-67
2023/07/29 08:23:33;;;;;;;9.85;3.58;;;;;;;;;;6184881;23;20016;-67
2023/07/29 08:26:03;;;;;;;9.30;4.05;;;;;;;;;;6211742;23;20016;-67
2023/07/29 08:28:30;;;;;;;8.60;3.75;;;;;;;;;;6211568;23;20067;-67
2023/07/29 08:30:57;;;;;;;8.52;3.80;;;;;;;;;;6211286;23;20017;-67
2023/07/29 08:33:23;;;;;;;6.85;3.45;;;;;;;;;;6211647;23;20039;-67
2023/07/29 08:35:49;;;;;;;7.40;3.45;;;;;;;;;;6211372;23;20016;-67
2023/07/29 08:38:15;;;;;;;6.47;3.30;;;;;;;;;;6211184;23;20017;-67
2023/07/29 08:40:43;;;;;;;4.50;2.85;;;;;;;;;;6211238;23;20521;-67
2023/07/29 08:43:10;;;;;;;7.05;2.83;;;;;;;;;;6211476;23;20335;-67
2023/07/29 08:45:39;;;;;;;7.28;3.03;;;;;;;;;;6210941;23;20009;-67
2023/07/29 08:48:08;;;;;;;6.47;2.97;;;;;;;;;;6211798;23;20079;-67
2023/07/29 08:50:35;;;;;;;4.85;2.72;;;;;;;;;;6211050;23;20063;-67
2023/07/29 08:53:04;;;;;;;6.65;3.10;;;;;;;;;;6211298;23;20316;-67
2023/07/29 08:55:30;;;;;;;6.00;3.00;;;;;;;;;;6211479;23;20019;-67
2023/07/29 08:57:56;;;;;;;4.97;2.75;;;;;;;;;;6211507;23;20009;-67
2023/07/29 09:00:22;;;;;;;7.13;2.92;;;;;;;;;;6211100;23;20009;-67
2023/07/29 09:02:48;;;;;;;5.75;2.60;;;;;;;;;;6211269;23;20039;-67
2023/07/29 09:05:14;;;;;;;4.70;3.10;;;;;;;;;;6211455;23;20519;-67
2023/07/29 09:07:41;;;;;;;6.35;2.85;;;;;;;;;;6209363;23;20015;-67
2023/07/29 09:10:12;;;;;;;7.60;2.70;;;;;;;;;;6211405;23;20022;-67
2023/07/29 09:12:38;;;;;;;6.13;2.80;;;;;;;;;;6211348;23;20243;-67
2023/07/29 09:15:05;;;;;;;4.82;2.20;;;;;;;;;;6210909;23;20021;-67
2023/07/29 09:17:32;;;;;;;4.25;2.95;;;;;;;;;;6211643;23;20024;-67
2023/07/29 09:19:58;;;;;;;4.75;2.58;;;;;;;;;;6211341;23;20012;-67
2023/07/29 09:22:25;;;;;;;5.88;2.75;;;;;;;;;;6210705;23;20020;-67
2023/07/29 09:24:52;;;;;;;5.13;2.63;;;;;;;;;;6210991;23;20448;-67
2023/07/29 09:27:27;;;;;;;7.38;2.40;;;;;;;;;;6211103;23;20044;-67
2023/07/29 09:29:54;;;;;;;5.20;3.00;;;;;;;;;;6210620;23;20035;-67
2023/07/29 09:32:20;;;;;;;5.85;2.17;;;;;;;;;;6210996;23;20246;-67
2023/07/29 09:34:46;;;;;;;4.70;1.85;;;;;;;;;;6211018;23;20051;-67
2023/07/29 09:37:22;;;;;;;4.88;2.00;;;;;;;;;;6208966;23;20448;-67
2023/07/29 09:39:48;;;;;;;4.90;1.92;;;;;;;;;;6211106;23;20447;-67
2023/07/29 09:42:21;;;;;;;5.25;2.35;;;;;;;;;;6211141;23;20091;-67
2023/07/29 09:44:48;;;;;;;4.53;2.00;;;;;;;;;;6210493;23;20447;-67
2023/07/29 09:47:21;;;;;;;3.50;1.85;;;;;;;;;;6211007;23;20008;-67
2023/07/29 09:49:48;;;;;;;4.00;2.22;;;;;;;;;;6210905;23;20139;-67
2023/07/29 09:52:20;;;;;;;8.60;1.92;;;;;;;;;;6210460;23;20032;-67
2023/07/29 09:54:46;;;;;;;4.85;1.95;;;;;;;;;;6210851;23;20091;-67
2023/07/29 09:57:17;;;;;;;3.85;1.70;;;;;;;;;;6211033;23;20021;-67
2023/07/29 09:59:43;;;;;;;6.55;1.70;;;;;;;;;;6210970;23;20091;-67
2023/07/29 10:02:16;;;;;;;4.15;1.67;;;;;;;;;;6210792;23;20481;-67
2023/07/29 10:04:43;;;;;;;7.43;2.38;;;;;;;;;;6211092;23;20319;-67
2023/07/29 10:07:10;;;;;;;3.25;1.35;;;;;;;;;;6210244;23;20088;-67
2023/07/29 10:09:37;;;;;;;2.70;1.48;;;;;;;;;;6211083;23;20019;-67
2023/07/29 10:12:03;;;;;;;4.70;2.35;;;;;;;;;;6210576;23;20099;-67
2023/07/29 10:14:31;;;;;;;3.55;1.58;;;;;;;;;;6210392;23;20023;-67
2023/07/29 10:16:57;;;;;;;4.25;1.90;;;;;;;;;;6210911;23;20024;-67
2023/07/29 10:19:26;;;;;;;4.72;2.05;;;;;;;;;;6210885;23;20048;-67
2023/07/29 10:21:52;;;;;;;5.05;1.40;;;;;;;;;;6210076;23;20020;-67
2023/07/29 10:24:22;;;;;;;2.28;1.70;;;;;;;;;;6210693;23;20067;-67
2023/07/29 10:26:49;;;;;;;4.80;1.67;;;;;;;;;;6210976;23;20023;-67
2023/07/29 10:29:18;;;;;;;2.28;1.48;;;;;;;;;;6210480;23;20009;-67
2023/07/29 10:31:45;;;;;;;3.97;1.90;;;;;;;;;;6213074;23;20419;-67
2023/07/29 10:34:11;;;;;;;2.90;1.67;;;;;;;;;;6214247;23;20259;-67
2023/07/29 10:36:37;;;;;;;3.55;2.03;;;;;;;;;;6213356;23;20394;-67
2023/07/29 10:39:04;;;;;;;6.38;2.05;;;;;;;;;;6213892;23;20013;-67
2023/07/29 10:41:48;;;;;;;3.92;1.95;;;;;;;;;;6214173;23;20009;-67
2023/07/29 10:44:33;;;;;;;5.80;2.28;;;;;;;;;;6213453;23;20013;-67
2023/07/29 10:46:59;;;;;;;2.35;1.98;;;;;;;;;;6213873;23;20013;-67
2023/07/29 10:49:25;;;;;;;3.05;2.20;;;;;;;;;;6214017;23;20381;-67
2023/07/29 10:51:50;;;;;;;5.30;2.28;;;;;;;;;;6213465;23;20027;-67
2023/07/29 10:54:16;;;;;;;3.22;2.30;;;;;;;;;;6213793;23;20036;-67
2023/07/29 10:56:44;;;;;;;8.63;2.20;;;;;;;;;;6214047;23;20008;-67
2023/07/29 10:59:16;;;;;;;8.77;2.80;;;;;;;;;;6213396;23;20087;-66
2023/07/29 11:01:43;;;;;;;4.28;1.98;;;;;;;;;;6213862;23;20017;-66
2023/07/29 11:04:23;;;;;;;5.43;1.92;;;;;;;;;;6213551;23;20023;-66
2023/07/29 11:07:07;;;;;;;11.88;2.28;;;;;;;;;;6213332;23;20084;-66
2023/07/29 11:09:51;;;;;;;6.90;2.53;;;;;;;;;;6213703;23;20012;-66
2023/07/29 11:12:35;;;;;;;3.70;2.40;;;;;;;;;;6213869;23;20040;-66
2023/07/29 11:15:04;;;;;;;4.18;2.55;;;;;;;;;;6213468;23;20024;-66
2023/07/29 11:17:31;;;;;;;6.20;3.67;;;;;;;;;;6213835;23;20451;-66
2023/07/29 11:19:59;;;;;;;4.80;3.40;;;;;;;;;;6213737;23;20433;-66
2023/07/29 11:22:26;;;;;;;7.45;4.43;;;;;;;;;;6213220;23;20023;-66
2023/07/29 11:24:52;;;;;;;6.30;3.45;;;;;;;;;;6213451;23;20021;-66
2023/07/29 11:27:18;;;;;;;11.27;4.32;;;;;;;;;;6213819;23;20013;-66
2023/07/29 11:29:44;;;;;;;5.47;2.95;;;;;;;;;;6213701;23;20067;-66
2023/07/29 11:32:10;;;;;;;5.50;3.25;;;;;;;;;;6213697;23;20016;-66
2023/07/29 11:34:36;;;;;;;5.93;3.10;;;;;;;;;;6213776;23;20033;-66
2023/07/29 11:37:02;;;;;;;7.05;3.20;;;;;;;;;;6212827;23;20032;-66
2023/07/29 11:39:28;;;;;;;6.38;2.95;;;;;;;;;;6214016;23;20447;-66
2023/07/29 11:41:54;;;;;;;4.53;2.40;;;;;;;;;;6213604;23;20012;-67
2023/07/29 11:44:20;;;;;;;4.95;2.55;;;;;;;;;;6212127;23;20016;-67
2023/07/29 11:46:48;;;;;;;6.75;3.38;;;;;;;;;;6212315;23;20431;-67
2023/07/29 11:49:15;;;;;;;5.18;2.50;;;;;;;;;;6185262;23;20392;-67
2023/07/29 11:51:41;;;;;;;8.70;3.17;;;;;;;;;;6184849;23;20096;-67
2023/07/29 11:54:08;;;;;;;5.07;2.58;;;;;;;;;;6212139;23;20019;-67
2023/07/29 11:56:35;;;;;;;6.65;2.70;;;;;;;;;;6212122;23;20467;-67
2023/07/29 11:59:02;;;;;;;6.32;2.90;;;;;;;;;;6211682;23;20013;-67
2023/07/29 12:01:29;;;;;;;5.80;2.50;;;;;;;;;;6212129;23;20020;-67
2023/07/29 12:03:56;;;;;;;5.05;2.42;;;;;;;;;;6212013;23;20005;-67
2023/07/29 12:06:24;;;;;;;6.63;2.30;;;;;;;;;;6211446;23;20055;-67
2023/07/29 12:08:50;;;;;;;5.50;2.58;;;;;;;;;;6212199;23;20375;-67
2023/07/29 12:11:16;;;;;;;5.90;2.45;;;;;;;;;;6212021;23;20017;-67
2023/07/29 12:13:42;;;;;;;5.53;2.42;;;;;;;;;;6211430;23;20713;-67
2023/07/29 12:16:08;;;;;;;4.13;2.20;;;;;;;;;;6212000;23;20422;-67
2023/07/29 12:18:34;;;;;;;4.70;2.28;;;;;;;;;;6212098;23;20027;-67
2023/07/29 12:21:00;;;;;;;3.83;2.33;;;;;;;;;;6211666;23;20020;-67
2023/07/29 12:23:27;;;;;;;5.47;2.53;;;;;;;;;;6211651;23;20044;-67
2023/07/29 12:25:57;;;;;;;4.38;2.40;;;;;;;;;;6211467;23;20013;-67
2023/07/29 12:28:23;;;;;;;4.78;2.17;;;;;;;;;;6211150;23;20044;-67
2023/07/29 12:30:56;;;;;;;3.85;2.50;;;;;;;;;;6212084;23;20260;-67
2023/07/29 12:33:35;;;;;;;3.63;2.38;;;;;;;;;;6211268;23;20013;-67
2023/07/29 12:36:02;;;;;;;3.15;2.35;;;;;;;;;;6210939;23;20017;-67
2023/07/29 12:38:28;;;;;;;3.97;2.00;;;;;;;;;;6211701;23;20070;-67
2023/07/29 12:40:54;;;;;;;4.40;2.10;;;;;;;;;;6211112;23;20028;-67
2023/07/29 12:43:20;;;;;;;5.35;2.20;;;;;;;;;;6211086;23;20032;-67
2023/07/29 12:45:46;;;;;;;4.72;2.20;;;;;;;;;;6211670;23;20436;-67
2023/07/29 12:48:12;;;;;;;6.20;2.28;;;;;;;;;;6211754;23;20074;-67
2023/07/29 12:50:39;;;;;;;5.35;1.98;;;;;;;;;;6211364;23;20009;-67
2023/07/29 12:53:05;;;;;;;3.50;2.10;;;;;;;;;;6211098;23;20028;-67
2023/07/29 12:55:31;;;;;;;4.28;2.17;;;;;;;;;;6211175;23;20020;-67
2023/07/29 12:57:58;;;;;;;3.22;2.38;;;;;;;;;;6211101;23;20104;-67
2023/07/29 13:00:25;;;;;;;2.90;1.63;;;;;;;;;;6211619;23;20023;-67
2023/07/29 13:02:51;;;;;;;2.67;1.40;;;;;;;;;;6184534;23;20012;-67
2023/07/29 13:05:17;;;;;;;5.53;1.92;;;;;;;;;;6210584;23;20048;-67
2023/07/29 13:07:43;;;;;;;5.30;1.73;;;;;;;;;;6211381;23;20012;-67
2023/07/29 13:10:10;;;;;;;7.45;1.75;;;;;;;;;;6211367;23;20379;-67
2023/07/29 13:12:36;;;;;;;5.50;1.48;;;;;;;;;;6184018;23;20340;-67
2023/07/29 13:15:02;;;;;;;3.65;1.23;;;;;;;;;;6211423;23;20016;-67
2023/07/29 13:17:28;;;;;;;3.50;1.50;;;;;;;;;;6211187;23;20009;-67
2023/07/29 13:19:54;;;;;;;4.50;1.17;;;;;;;;;;6210601;23;20555;-67
2023/07/29 13:22:20;;;;;;;5.40;1.35;;;;;;;;;;6210882;23;20017;-67
2023/07/29 13:24:46;;;;;;;4.65;1.63;;;;;;;;;;6211318;23;20023;-67
2023/07/29 13:27:12;;;;;;;6.45;2.03;;;;;;;;;;6210822;23;20042;-67
2023/07/29 13:29:38;;;;;;;3.00;1.30;;;;;;;;;;6211214;23;20088;-67
2023/07/29 13:32:05;;;;;;;4.43;1.50;;;;;;;;;;6211022;23;20373;-67
2023/07/29 13:34:31;;;;;;;4.45;1.35;;;;;;;;;;6210625;23;20016;-67
2023/07/29 13:36:57;;;;;;;2.80;1.13;;;;;;;;;;6210928;23;20032;-67
2023/07/29 13:39:23;;;;;;;1.70;1.13;;;;;;;;;;6211159;23;20390;-67
2023/07/29 13:41:49;;;;;;;4.35;1.58;;;;;;;;;;6210636;23;20045;-67
2023/07/29 13:44:15;;;;;;;5.22;1.42;;;;;;;;;;6210990;23;20031;-67
2023/07/29 13:46:41;;;;;;;4.63;1.50;;;;;;;;;;6211254;23;20265;-67
2023/07/29 13:49:07;;;;;;;2.75;1.38;;;;;;;;;;6210563;23;20039;-67
2023/07/29 13:51:33;;;;;;;2.20;1.20;;;;;;;;;;6210593;23;20016;-67
2023/07/29 13:53:59;;;;;;;3.45;1.10;;;;;;;;;;6210930;23;20017;-67
2023/07/29 13:56:25;;;;;;;2.35;1.17;;;;;;;;;;6210155;23;20361;-67
2023/07/29 13:58:51;;;;;;;2.08;1.10;;;;;;;;;;6210916;23;20056;-67
2023/07/29 14:01:17;;;;;;;3.72;1.20;;;;;;;;;;6210605;23;20359;-67
2023/07/29 14:03:43;;;;;;;1.63;1.05;;;;;;;;;;6210505;23;20009;-67
2023/07/29 14:06:09;;;;;;;2.15;1.25;;;;;;;;;;6210625;23;20505;-67
2023/07/29 14:08:35;;;;;;;1.80;1.10;;;;;;;;;;6210925;23;20537;-67
2023/07/29 14:11:01;;;;;;;3.95;1.27;;;;;;;;;;6184203;23;20016;-67
2023/07/29 14:13:27;;;;;;;4.00;1.30;;;;;;;;;;6210418;23;20507;-67
2023/07/29 14:15:53;;;;;;;9.15;1.73;;;;;;;;;;6210661;23;20016;-67
2023/07/29 14:18:19;;;;;;;2.17;1.10;;;;;;;;;;6210344;23;20036;-67
2023/07/29 14:20:45;;;;;;;3.40;1.40;;;;;;;;;;6210764;23;20008;-67
2023/07/29 14:23:11;;;;;;;3.20;1.20;;;;;;;;;;6210468;23;20014;-67
2023/07/29 14:25:37;;;;;;;3.15;1.25;;;;;;;;;;6210326;23;20016;-67
2023/07/29 14:28:03;;;;;;;2.58;1.27;;;;;;;;;;6210685;23;20431;-67
2023/07/29 14:30:29;;;;;;;3.63;1.30;;;;;;;;;;6211057;23;20013;-67
2023/07/29 14:32:55;;;;;;;3.17;1.23;;;;;;;;;;6210215;23;20522;-67
2023/07/29 14:35:21;;;;;;;1.73;1.23;;;;;;;;;;6210659;23;20020;-67
2023/07/29 14:37:47;;;;;;;3.55;1.20;;;;;;;;;;6210118;23;20021;-67
2023/07/29 14:40:13;;;;;;;5.20;1.50;;;;;;;;;;6210016;23;20095;-67